createdAt,value
2022-12-05T00:01:14.923Z,2.90
2022-12-05T00:04:36.791Z,2.90
2022-12-05T00:07:58.634Z,2.90
2022-12-05T00:11:21.473Z,2.80
2022-12-05T00:14:44.548Z,2.80
2022-12-05T00:18:06.460Z,2.80
2022-12-05T00:21:28.852Z,2.80
2022-12-05T00:24:50.574Z,2.80
2022-12-05T00:28:12.165Z,2.80
2022-12-05T00:31:35.243Z,2.80
2022-12-05T00:34:56.886Z,2.80
2022-12-05T00:38:18.490Z,2.80
2022-12-05T00:41:40.076Z,2.70
2022-12-05T00:45:01.676Z,2.80
2022-12-05T00:48:24.649Z,2.70
2022-12-05T00:51:47.899Z,2.70
2022-12-05T00:55:09.504Z,2.70
2022-12-05T00:58:31.241Z,2.60
2022-12-05T01:01:53.137Z,2.70
2022-12-05T01:05:16.256Z,2.70
2022-12-05T01:08:37.841Z,2.70
2022-12-05T01:11:59.443Z,2.70
2022-12-05T01:15:21.054Z,2.80
2022-12-05T01:18:42.795Z,2.80
2022-12-05T01:22:05.844Z,2.80
2022-12-05T01:25:27.502Z,2.90
2022-12-05T01:28:49.664Z,2.80
2022-12-05T01:32:11.363Z,2.80
2022-12-05T01:35:33.173Z,2.80
2022-12-05T01:38:56.581Z,2.80
2022-12-05T01:42:21.850Z,2.80
2022-12-05T01:45:47.595Z,2.90
2022-12-05T01:49:10.134Z,2.80
2022-12-05T01:52:33.388Z,2.90
2022-12-05T01:55:56.750Z,2.80
2022-12-05T01:59:19.169Z,2.70
2022-12-05T02:02:41.889Z,2.70
2022-12-05T02:06:03.969Z,2.70
2022-12-05T02:09:25.551Z,2.70
2022-12-05T02:12:49.605Z,2.70
2022-12-05T02:16:12.946Z,2.80
2022-12-05T02:19:47.389Z,2.80
2022-12-05T02:23:27.534Z,2.80
2022-12-05T02:26:55.370Z,2.80
2022-12-05T02:30:18.756Z,2.80
2022-12-05T02:33:44.511Z,2.80
2022-12-05T02:37:09.497Z,2.80
2022-12-05T02:40:34.668Z,2.80
2022-12-05T02:43:57.150Z,2.90
2022-12-05T02:47:22.223Z,2.80
2022-12-05T02:50:44.164Z,2.80
2022-12-05T02:54:08.049Z,2.90
2022-12-05T02:57:30.206Z,2.90
2022-12-05T03:00:53.945Z,2.90
2022-12-05T03:04:17.510Z,2.90
2022-12-05T03:07:40.539Z,2.90
2022-12-05T03:11:02.937Z,2.90
2022-12-05T03:14:28.855Z,2.90
2022-12-05T03:17:52.809Z,2.90
2022-12-05T03:21:19.720Z,2.90
2022-12-05T03:24:41.704Z,2.90
2022-12-05T03:28:08.151Z,3.00
2022-12-05T03:31:34.502Z,3.00
2022-12-05T03:35:02.262Z,2.90
2022-12-05T03:38:27.254Z,3.00
2022-12-05T03:41:52.841Z,2.90
2022-12-05T03:45:16.473Z,3.00
2022-12-05T03:48:40.776Z,2.90
2022-12-05T03:52:05.963Z,2.90
2022-12-05T03:55:30.798Z,2.80
2022-12-05T03:58:55.101Z,2.80
2022-12-05T04:02:19.836Z,2.70
2022-12-05T04:05:43.131Z,2.80
2022-12-05T04:09:06.638Z,2.70
2022-12-05T04:12:31.077Z,2.60
2022-12-05T04:15:55.093Z,2.60
2022-12-05T04:19:17.804Z,2.60
2022-12-05T04:22:39.462Z,2.50
2022-12-05T04:26:05.195Z,2.50
2022-12-05T04:29:29.642Z,2.50
2022-12-05T04:32:54.504Z,2.50
2022-12-05T04:36:19.116Z,2.40
2022-12-05T04:39:44.659Z,2.40
2022-12-05T04:43:06.849Z,2.30
2022-12-05T04:46:29.846Z,2.20
2022-12-05T04:49:53.984Z,2.20
2022-12-05T04:53:16.826Z,2.00
2022-12-05T04:56:39.349Z,1.90
2022-12-05T05:00:01.200Z,1.80
2022-12-05T05:03:27.320Z,1.80
2022-12-05T05:06:49.035Z,1.70
2022-12-05T05:10:12.655Z,1.60
2022-12-05T05:13:34.354Z,1.70
2022-12-05T05:16:56.377Z,1.70
2022-12-05T05:20:20.089Z,1.80
2022-12-05T05:23:41.838Z,2.00
2022-12-05T05:27:03.524Z,2.10
2022-12-05T05:30:25.362Z,2.20
2022-12-05T05:33:48.679Z,2.30
2022-12-05T05:37:11.596Z,2.40
2022-12-05T05:40:34.707Z,2.50
2022-12-05T05:43:56.726Z,2.50
2022-12-05T05:47:18.354Z,2.50
2022-12-05T05:50:39.918Z,2.60
2022-12-05T05:54:02.994Z,2.60
2022-12-05T05:57:24.616Z,2.70
2022-12-05T06:00:46.198Z,2.70
2022-12-05T06:04:07.929Z,2.70
2022-12-05T06:07:29.779Z,2.70
2022-12-05T06:10:52.737Z,2.70
2022-12-05T06:14:14.336Z,2.70
2022-12-05T06:17:36.033Z,2.70
2022-12-05T06:20:58.516Z,2.80
2022-12-05T06:24:20.091Z,2.80
2022-12-05T06:27:43.032Z,2.70
2022-12-05T06:31:06.879Z,2.80
2022-12-05T06:34:28.665Z,2.80
2022-12-05T06:37:50.250Z,2.90
2022-12-05T06:41:13.665Z,2.90
2022-12-05T06:44:36.601Z,2.80
2022-12-05T06:47:58.263Z,2.90
2022-12-05T06:51:20.184Z,2.90
2022-12-05T06:54:41.754Z,2.90
2022-12-05T06:58:03.326Z,2.80
2022-12-05T07:01:26.368Z,2.80
2022-12-05T07:04:47.982Z,2.80
2022-12-05T07:08:09.623Z,2.80
2022-12-05T07:11:31.331Z,2.80
2022-12-05T07:14:52.903Z,2.90
2022-12-05T07:18:16.244Z,2.90
2022-12-05T07:21:37.813Z,3.00
2022-12-05T07:24:59.390Z,3.00
2022-12-05T07:28:21.243Z,3.10
2022-12-05T07:31:42.963Z,3.30
2022-12-05T07:35:06.334Z,3.50
2022-12-05T07:38:28.509Z,3.60
2022-12-05T07:41:50.093Z,3.70
2022-12-05T07:45:11.687Z,3.80
2022-12-05T07:48:33.312Z,3.90
2022-12-05T07:51:56.554Z,4.00
2022-12-05T07:55:18.193Z,4.20
2022-12-05T07:58:39.954Z,4.40
2022-12-05T08:02:01.595Z,4.50
2022-12-05T08:05:23.229Z,4.60
2022-12-05T08:08:46.268Z,4.50
2022-12-05T08:12:07.923Z,4.60
2022-12-05T08:15:29.509Z,4.50
2022-12-05T08:18:54.051Z,4.60
2022-12-05T08:22:15.665Z,4.50
2022-12-05T08:25:38.604Z,4.50
2022-12-05T08:29:01.436Z,4.60
2022-12-05T08:32:23.041Z,4.70
2022-12-05T08:35:44.635Z,4.60
2022-12-05T08:39:06.953Z,4.60
2022-12-05T08:42:29.909Z,4.60
2022-12-05T08:45:51.999Z,4.60
2022-12-05T08:49:13.656Z,4.80
2022-12-05T08:52:35.248Z,4.90
2022-12-05T08:56:00.008Z,4.90
2022-12-05T08:59:22.943Z,5.00
2022-12-05T09:02:44.623Z,5.00
2022-12-05T09:06:06.890Z,5.00
2022-12-05T09:09:28.465Z,5.00
2022-12-05T09:12:50.033Z,5.00
2022-12-05T09:16:14.361Z,5.20
2022-12-05T09:19:36.020Z,5.40
2022-12-05T09:22:57.621Z,5.60
2022-12-05T09:26:20.905Z,5.70
2022-12-05T09:29:42.711Z,5.80
2022-12-05T09:33:05.661Z,6.00
2022-12-05T09:36:28.356Z,6.00
2022-12-05T09:39:50.220Z,6.00
2022-12-05T09:43:17.077Z,6.00
2022-12-05T09:46:43.875Z,6.00
2022-12-05T09:50:12.956Z,5.90
2022-12-05T09:53:39.848Z,5.90
2022-12-05T09:57:03.651Z,6.00
2022-12-05T10:00:26.621Z,6.10
2022-12-05T10:03:59.020Z,6.10
2022-12-05T10:07:25.768Z,6.10
2022-12-05T10:10:53.877Z,6.10
2022-12-05T10:14:20.858Z,6.20
2022-12-05T10:17:44.148Z,6.20
2022-12-05T10:21:10.095Z,6.40
2022-12-05T10:24:37.009Z,6.50
2022-12-05T10:28:00.470Z,6.60
2022-12-05T10:31:25.472Z,6.60
2022-12-05T10:34:47.112Z,6.90
2022-12-05T10:38:12.094Z,7.00
2022-12-05T10:41:35.200Z,7.00
2022-12-05T10:44:57.779Z,7.00
2022-12-05T10:48:20.642Z,7.10
2022-12-05T10:51:42.607Z,7.20
2022-12-05T10:55:05.719Z,7.10
2022-12-05T10:58:29.754Z,7.00
2022-12-05T11:01:53.478Z,7.10
2022-12-05T11:05:17.155Z,6.90
2022-12-05T11:09:03.636Z,6.80
2022-12-05T11:12:24.358Z,6.60
2022-12-05T11:15:53.707Z,6.50
2022-12-05T11:19:19.600Z,6.50
2022-12-05T11:22:44.426Z,6.70
2022-12-05T11:26:16.390Z,7.00
2022-12-05T11:29:39.689Z,7.30
2022-12-05T11:33:18.283Z,7.70
2022-12-05T11:36:40.928Z,7.90
2022-12-05T11:40:03.269Z,7.80
2022-12-05T11:43:44.408Z,7.70
2022-12-05T11:47:15.058Z,7.50
2022-12-05T11:50:41.861Z,7.40
2022-12-05T11:54:13.032Z,7.40
2022-12-05T11:57:41.361Z,7.40
2022-12-05T12:01:06.856Z,7.30
2022-12-05T12:04:34.400Z,7.30
2022-12-05T12:08:03.412Z,7.30
2022-12-05T12:11:29.813Z,7.40
2022-12-05T12:14:56.329Z,7.50
2022-12-05T12:18:24.604Z,7.70
2022-12-05T12:21:51.779Z,7.60
2022-12-05T12:25:20.505Z,7.80
2022-12-05T12:28:45.757Z,7.70
2022-12-05T12:32:14.507Z,7.80
2022-12-05T12:35:41.636Z,7.80
2022-12-05T12:39:09.808Z,7.80
2022-12-05T12:42:36.733Z,7.50
2022-12-05T12:46:10.997Z,7.40
2022-12-05T12:49:41.329Z,7.50
2022-12-05T12:53:13.877Z,7.50
2022-12-05T12:56:42.347Z,7.50
2022-12-05T13:00:11.211Z,7.40
2022-12-05T13:03:37.400Z,7.30
2022-12-05T13:07:03.222Z,7.30
2022-12-05T13:10:28.576Z,7.40
2022-12-05T13:13:52.112Z,7.20
2022-12-05T13:17:18.494Z,7.10
2022-12-05T13:20:40.379Z,7.10
2022-12-05T13:24:04.540Z,7.10
2022-12-05T13:27:27.514Z,7.10
2022-12-05T13:30:49.685Z,7.20
2022-12-05T13:34:26.463Z,7.20
2022-12-05T13:37:49.418Z,7.10
2022-12-05T13:41:11.101Z,7.10
2022-12-05T13:44:35.610Z,7.10
2022-12-05T13:48:04.218Z,7.20
2022-12-05T13:51:28.514Z,7.20
2022-12-05T13:54:56.510Z,7.30
2022-12-05T13:58:32.993Z,7.20
2022-12-05T14:01:56.408Z,7.30
2022-12-05T14:05:37.360Z,7.20
2022-12-05T14:08:59.082Z,7.20
2022-12-05T14:12:43.455Z,7.20
2022-12-05T14:16:20.067Z,7.10
2022-12-05T14:19:53.651Z,7.00
2022-12-05T14:23:32.996Z,6.90
2022-12-05T14:26:57.981Z,6.80
2022-12-05T14:30:27.000Z,6.60
2022-12-05T14:34:03.143Z,6.50
2022-12-05T14:37:26.923Z,6.40
2022-12-05T14:40:48.836Z,6.40
2022-12-05T14:44:20.235Z,6.30
2022-12-05T14:47:52.055Z,6.30
2022-12-05T14:51:32.910Z,6.30
2022-12-05T14:54:58.095Z,6.10
2022-12-05T14:58:23.397Z,6.10
2022-12-05T15:01:47.310Z,6.00
2022-12-05T15:05:20.874Z,5.80
2022-12-05T15:08:45.111Z,5.70
2022-12-05T15:12:11.201Z,5.60
2022-12-05T15:15:35.675Z,5.70
2022-12-05T15:18:58.650Z,5.70
2022-12-05T15:22:22.483Z,5.70
2022-12-05T15:25:44.109Z,5.60
2022-12-05T15:29:06.680Z,5.60
2022-12-05T15:32:28.673Z,5.40
2022-12-05T15:35:50.527Z,5.30
2022-12-05T15:39:21.814Z,5.20
2022-12-05T15:42:45.912Z,5.10
2022-12-05T15:46:08.465Z,5.10
2022-12-05T15:49:30.113Z,5.00
2022-12-05T15:52:53.934Z,4.90
2022-12-05T15:56:19.240Z,4.90
2022-12-05T15:59:43.077Z,4.80
2022-12-05T16:03:07.227Z,4.70
2022-12-05T16:06:30.396Z,4.60
2022-12-05T16:09:55.670Z,4.40
2022-12-05T16:13:22.280Z,4.40
2022-12-05T16:16:43.939Z,4.40
2022-12-05T16:20:20.005Z,4.30
2022-12-05T16:23:41.567Z,4.30
2022-12-05T16:27:05.070Z,4.40
2022-12-05T16:30:28.712Z,4.40
2022-12-05T16:33:59.092Z,4.40
2022-12-05T16:37:23.147Z,4.40
2022-12-05T16:40:53.044Z,4.40
2022-12-05T16:44:29.524Z,4.40
2022-12-05T16:47:58.831Z,4.50
2022-12-05T16:51:21.326Z,4.50
2022-12-05T16:54:44.823Z,4.50
2022-12-05T16:58:10.589Z,4.50
2022-12-05T17:01:38.519Z,4.50
2022-12-05T17:05:02.686Z,4.50
2022-12-05T17:08:24.729Z,4.30
2022-12-05T17:11:47.104Z,4.20
2022-12-05T17:15:09.503Z,4.00
2022-12-05T17:18:32.091Z,4.00
2022-12-05T17:21:55.169Z,4.00
2022-12-05T17:25:18.206Z,4.00
2022-12-05T17:28:39.826Z,4.10
2022-12-05T17:32:01.513Z,4.20
2022-12-05T17:35:23.127Z,4.30
2022-12-05T17:38:46.045Z,4.30
2022-12-05T17:42:08.111Z,4.40
2022-12-05T17:45:29.775Z,4.50
2022-12-05T17:48:51.673Z,4.50
2022-12-05T17:52:21.604Z,4.50
2022-12-05T17:55:56.166Z,4.60
2022-12-05T17:59:17.753Z,4.60
2022-12-05T18:02:39.412Z,4.50
2022-12-05T18:06:03.603Z,4.50
2022-12-05T18:09:25.529Z,4.50
2022-12-05T18:12:48.928Z,4.50
2022-12-05T18:16:10.689Z,4.50
2022-12-05T18:19:32.501Z,4.40
2022-12-05T18:22:54.092Z,4.40
2022-12-05T18:26:15.690Z,4.40
2022-12-05T18:29:38.637Z,4.40
2022-12-05T18:33:00.510Z,4.40
2022-12-05T18:36:23.408Z,4.40
2022-12-05T18:39:45.775Z,4.30
2022-12-05T18:43:07.553Z,4.30
2022-12-05T18:46:31.273Z,4.30
2022-12-05T18:49:52.944Z,4.30
2022-12-05T18:53:14.581Z,4.30
2022-12-05T18:56:36.176Z,4.20
2022-12-05T18:59:57.751Z,4.20
2022-12-05T19:03:21.135Z,4.20
2022-12-05T19:06:47.212Z,4.20
2022-12-05T19:10:09.913Z,4.20
2022-12-05T19:13:31.923Z,4.20
2022-12-05T19:16:59.898Z,4.30
2022-12-05T19:20:28.120Z,4.30
2022-12-05T19:23:50.724Z,4.30
2022-12-05T19:27:13.066Z,4.30
2022-12-05T19:30:35.221Z,4.30
2022-12-05T19:34:00.108Z,4.20
2022-12-05T19:37:23.544Z,4.20
2022-12-05T19:40:54.577Z,4.10
2022-12-05T19:44:16.603Z,4.00
2022-12-05T19:47:39.490Z,3.90
2022-12-05T19:51:02.234Z,3.90
2022-12-05T19:54:29.413Z,3.80
2022-12-05T19:57:52.001Z,3.90
2022-12-05T20:01:14.679Z,3.90
2022-12-05T20:04:36.807Z,3.90
2022-12-05T20:07:58.838Z,3.90
2022-12-05T20:11:23.901Z,4.00
2022-12-05T20:14:45.857Z,4.00
2022-12-05T20:18:07.511Z,4.00
2022-12-05T20:21:30.864Z,4.00
2022-12-05T20:24:52.847Z,4.10
2022-12-05T20:28:16.241Z,4.10
2022-12-05T20:31:39.191Z,4.10
2022-12-05T20:35:01.203Z,4.20
2022-12-05T20:38:25.861Z,4.20
2022-12-05T20:41:49.981Z,4.20
2022-12-05T20:45:13.139Z,4.30
2022-12-05T20:48:35.293Z,4.20
2022-12-05T20:51:57.151Z,4.20
2022-12-05T20:55:19.150Z,4.10
2022-12-05T20:58:41.764Z,4.10
2022-12-05T21:02:06.822Z,4.10
2022-12-05T21:05:28.876Z,4.10
2022-12-05T21:08:52.245Z,4.00
2022-12-05T21:12:14.054Z,4.00
2022-12-05T21:15:36.918Z,4.00
2022-12-05T21:19:00.402Z,4.00
2022-12-05T21:22:22.701Z,4.00
2022-12-05T21:25:45.496Z,4.00
2022-12-05T21:29:07.566Z,4.00
2022-12-05T21:32:29.182Z,4.00
2022-12-05T21:35:54.903Z,4.00
2022-12-05T21:39:16.603Z,4.00
2022-12-05T21:42:38.194Z,3.90
2022-12-05T21:46:00.088Z,4.00
2022-12-05T21:49:22.032Z,4.00
2022-12-05T21:52:45.290Z,4.00
2022-12-05T21:56:08.178Z,4.00
2022-12-05T21:59:30.100Z,4.00
2022-12-05T22:02:51.933Z,4.10
2022-12-05T22:06:14.434Z,4.10
2022-12-05T22:09:37.758Z,4.00
2022-12-05T22:12:59.644Z,4.00
2022-12-05T22:16:21.945Z,4.00
2022-12-05T22:19:43.800Z,4.00
2022-12-05T22:23:05.834Z,4.00
2022-12-05T22:26:29.083Z,3.90
2022-12-05T22:29:52.885Z,3.90
2022-12-05T22:33:14.960Z,3.90
2022-12-05T22:36:36.666Z,3.90
2022-12-05T22:39:59.012Z,3.80
2022-12-05T22:43:22.993Z,3.80
2022-12-05T22:46:44.872Z,3.80
2022-12-05T22:50:07.223Z,3.70
2022-12-05T22:53:29.065Z,3.80
2022-12-05T22:56:50.689Z,3.70
2022-12-05T23:00:14.486Z,3.70
2022-12-05T23:03:36.314Z,3.70
2022-12-05T23:06:57.976Z,3.70
2022-12-05T23:10:20.511Z,3.70
2022-12-05T23:13:42.629Z,3.80
2022-12-05T23:17:05.608Z,3.80
2022-12-05T23:20:32.170Z,3.80
2022-12-05T23:23:54.925Z,3.80
2022-12-05T23:27:16.662Z,3.80
2022-12-05T23:30:38.285Z,3.80
2022-12-05T23:34:03.675Z,3.80
2022-12-05T23:37:25.841Z,3.90
2022-12-05T23:40:57.231Z,3.90
2022-12-05T23:44:18.824Z,3.90
2022-12-05T23:47:40.432Z,3.90
2022-12-05T23:51:04.786Z,3.90
2022-12-05T23:54:26.631Z,3.90
2022-12-05T23:57:48.275Z,3.90
